sensor_id;sensor_type;location;lat;lon;timestamp;P1;durP1;ratioP1;P2;durP2;ratioP2
42602;SDS011;28233;55.748;48.752;2023-02-11T00:00:17;19.37;;;7.50;;
42602;SDS011;28233;55.748;48.752;2023-02-11T00:02:20;16.53;;;7.37;;
42602;SDS011;28233;55.748;48.752;2023-02-11T00:04:24;18.50;;;8.50;;
42602;SDS011;28233;55.748;48.752;2023-02-11T00:06:27;13.77;;;6.93;;
42602;SDS011;28233;55.748;48.752;2023-02-11T00:08:31;16.03;;;6.80;;
42602;SDS011;28233;55.748;48.752;2023-02-11T00:10:34;14.87;;;6.37;;
42602;SDS011;28233;55.748;48.752;2023-02-11T00:12:36;15.80;;;7.70;;
42602;SDS011;28233;55.748;48.752;2023-02-11T00:14:39;13.87;;;7.33;;
42602;SDS011;28233;55.748;48.752;2023-02-11T00:16:42;21.03;;;6.83;;
42602;SDS011;28233;55.748;48.752;2023-02-11T00:18:45;17.87;;;7.50;;
42602;SDS011;28233;55.748;48.752;2023-02-11T00:20:48;15.57;;;7.70;;
42602;SDS011;28233;55.748;48.752;2023-02-11T00:22:51;13.13;;;6.33;;
42602;SDS011;28233;55.748;48.752;2023-02-11T00:24:54;24.43;;;8.00;;
42602;SDS011;28233;55.748;48.752;2023-02-11T00:26:58;17.67;;;6.93;;
42602;SDS011;28233;55.748;48.752;2023-02-11T00:29:01;23.70;;;7.60;;
42602;SDS011;28233;55.748;48.752;2023-02-11T00:31:04;18.90;;;8.00;;
42602;SDS011;28233;55.748;48.752;2023-02-11T00:33:06;17.13;;;7.63;;
42602;SDS011;28233;55.748;48.752;2023-02-11T00:35:09;15.00;;;7.03;;
42602;SDS011;28233;55.748;48.752;2023-02-11T00:37:12;19.73;;;8.40;;
42602;SDS011;28233;55.748;48.752;2023-02-11T00:39:15;17.90;;;8.03;;
42602;SDS011;28233;55.748;48.752;2023-02-11T00:41:17;18.90;;;7.83;;
42602;SDS011;28233;55.748;48.752;2023-02-11T00:43:21;16.50;;;7.07;;
42602;SDS011;28233;55.748;48.752;2023-02-11T00:45:23;21.33;;;8.37;;
42602;SDS011;28233;55.748;48.752;2023-02-11T00:47:26;18.90;;;8.83;;
42602;SDS011;28233;55.748;48.752;2023-02-11T00:49:29;19.57;;;9.10;;
42602;SDS011;28233;55.748;48.752;2023-02-11T00:51:31;22.13;;;9.80;;
42602;SDS011;28233;55.748;48.752;2023-02-11T00:53:34;22.77;;;9.17;;
42602;SDS011;28233;55.748;48.752;2023-02-11T00:55:37;24.77;;;9.87;;
42602;SDS011;28233;55.748;48.752;2023-02-11T00:57:40;20.13;;;7.93;;
42602;SDS011;28233;55.748;48.752;2023-02-11T00:59:43;22.50;;;9.03;;
42602;SDS011;28233;55.748;48.752;2023-02-11T01:01:45;19.93;;;9.73;;
42602;SDS011;28233;55.748;48.752;2023-02-11T01:03:48;21.50;;;9.10;;
42602;SDS011;28233;55.748;48.752;2023-02-11T01:05:51;21.57;;;10.00;;
42602;SDS011;28233;55.748;48.752;2023-02-11T01:07:54;21.20;;;10.03;;
42602;SDS011;28233;55.748;48.752;2023-02-11T01:09:56;22.77;;;8.80;;
42602;SDS011;28233;55.748;48.752;2023-02-11T01:11:59;21.93;;;9.87;;
42602;SDS011;28233;55.748;48.752;2023-02-11T01:14:02;19.90;;;8.90;;
42602;SDS011;28233;55.748;48.752;2023-02-11T01:16:05;21.27;;;9.40;;
42602;SDS011;28233;55.748;48.752;2023-02-11T01:18:09;26.97;;;9.93;;
42602;SDS011;28233;55.748;48.752;2023-02-11T01:20:18;24.30;;;9.50;;
42602;SDS011;28233;55.748;48.752;2023-02-11T01:22:23;16.45;;;6.63;;
42602;SDS011;28233;55.748;48.752;2023-02-11T01:24:25;17.03;;;7.43;;
42602;SDS011;28233;55.748;48.752;2023-02-11T01:26:28;19.63;;;7.97;;
42602;SDS011;28233;55.748;48.752;2023-02-11T01:28:31;23.47;;;9.37;;
42602;SDS011;28233;55.748;48.752;2023-02-11T01:30:34;21.40;;;9.83;;
42602;SDS011;28233;55.748;48.752;2023-02-11T01:32:36;19.83;;;9.27;;
42602;SDS011;28233;55.748;48.752;2023-02-11T01:34:39;20.87;;;8.67;;
42602;SDS011;28233;55.748;48.752;2023-02-11T01:36:42;22.07;;;8.80;;
42602;SDS011;28233;55.748;48.752;2023-02-11T01:38:44;22.87;;;10.00;;
42602;SDS011;28233;55.748;48.752;2023-02-11T01:40:51;20.00;;;10.00;;
42602;SDS011;28233;55.748;48.752;2023-02-11T01:43:05;19.03;;;8.53;;
42602;SDS011;28233;55.748;48.752;2023-02-11T01:47:48;20.50;;;8.77;;
42602;SDS011;28233;55.748;48.752;2023-02-11T01:49:56;17.30;;;7.87;;
42602;SDS011;28233;55.748;48.752;2023-02-11T01:52:12;20.40;;;8.47;;
42602;SDS011;28233;55.748;48.752;2023-02-11T01:54:23;20.60;;;9.57;;
42602;SDS011;28233;55.748;48.752;2023-02-11T01:56:48;17.73;;;9.03;;
42602;SDS011;28233;55.748;48.752;2023-02-11T01:59:15;24.00;;;9.53;;
42602;SDS011;28233;55.748;48.752;2023-02-11T02:01:22;23.03;;;9.30;;
42602;SDS011;28233;55.748;48.752;2023-02-11T02:03:27;17.47;;;8.60;;
42602;SDS011;28233;55.748;48.752;2023-02-11T02:05:34;19.10;;;7.90;;
42602;SDS011;28233;55.748;48.752;2023-02-11T02:07:55;23.17;;;9.13;;
42602;SDS011;28233;55.748;48.752;2023-02-11T02:10:20;20.33;;;8.83;;
42602;SDS011;28233;55.748;48.752;2023-02-11T02:12:26;22.73;;;9.13;;
42602;SDS011;28233;55.748;48.752;2023-02-11T02:14:29;20.70;;;8.27;;
42602;SDS011;28233;55.748;48.752;2023-02-11T02:16:35;22.07;;;8.27;;
42602;SDS011;28233;55.748;48.752;2023-02-11T02:28:58;15.67;;;7.63;;
42602;SDS011;28233;55.748;48.752;2023-02-11T02:34:22;19.47;;;8.30;;
42602;SDS011;28233;55.748;48.752;2023-02-11T02:36:46;17.23;;;7.03;;
42602;SDS011;28233;55.748;48.752;2023-02-11T02:41:27;18.92;;;8.85;;
42602;SDS011;28233;55.748;48.752;2023-02-11T02:43:33;20.60;;;8.47;;
42602;SDS011;28233;55.748;48.752;2023-02-11T02:45:38;16.77;;;7.73;;
42602;SDS011;28233;55.748;48.752;2023-02-11T02:47:40;19.47;;;8.60;;
42602;SDS011;28233;55.748;48.752;2023-02-11T02:49:43;21.80;;;8.60;;
42602;SDS011;28233;55.748;48.752;2023-02-11T02:56:07;17.57;;;8.20;;
42602;SDS011;28233;55.748;48.752;2023-02-11T03:01:16;19.33;;;8.60;;
42602;SDS011;28233;55.748;48.752;2023-02-11T03:03:30;16.43;;;9.27;;
42602;SDS011;28233;55.748;48.752;2023-02-11T03:07:58;18.60;;;8.60;;
42602;SDS011;28233;55.748;48.752;2023-02-11T03:10:44;18.73;;;8.77;;
42602;SDS011;28233;55.748;48.752;2023-02-11T03:12:45;20.20;;;8.23;;
42602;SDS011;28233;55.748;48.752;2023-02-11T03:14:50;18.93;;;8.83;;
42602;SDS011;28233;55.748;48.752;2023-02-11T03:16:53;20.73;;;9.63;;
42602;SDS011;28233;55.748;48.752;2023-02-11T03:19:00;17.73;;;8.27;;
42602;SDS011;28233;55.748;48.752;2023-02-11T03:21:07;18.03;;;8.30;;
42602;SDS011;28233;55.748;48.752;2023-02-11T03:23:13;16.53;;;6.77;;
42602;SDS011;28233;55.748;48.752;2023-02-11T03:25:27;17.47;;;7.87;;
42602;SDS011;28233;55.748;48.752;2023-02-11T03:30:00;18.20;;;7.83;;
42602;SDS011;28233;55.748;48.752;2023-02-11T03:32:19;19.37;;;8.53;;
42602;SDS011;28233;55.748;48.752;2023-02-11T03:38:58;16.70;;;7.97;;
42602;SDS011;28233;55.748;48.752;2023-02-11T03:41:04;16.63;;;7.43;;
42602;SDS011;28233;55.748;48.752;2023-02-11T03:43:11;21.07;;;7.60;;
42602;SDS011;28233;55.748;48.752;2023-02-11T03:45:20;22.17;;;9.60;;
42602;SDS011;28233;55.748;48.752;2023-02-11T03:47:26;20.20;;;8.20;;
42602;SDS011;28233;55.748;48.752;2023-02-11T03:49:32;17.50;;;7.97;;
42602;SDS011;28233;55.748;48.752;2023-02-11T03:51:39;25.90;;;9.63;;
42602;SDS011;28233;55.748;48.752;2023-02-11T03:53:43;20.48;;;9.80;;
42602;SDS011;28233;55.748;48.752;2023-02-11T03:55:48;22.70;;;9.83;;
42602;SDS011;28233;55.748;48.752;2023-02-11T03:57:53;22.87;;;9.17;;
42602;SDS011;28233;55.748;48.752;2023-02-11T03:59:57;24.77;;;10.70;;
42602;SDS011;28233;55.748;48.752;2023-02-11T04:02:00;19.03;;;9.43;;
42602;SDS011;28233;55.748;48.752;2023-02-11T04:04:03;19.43;;;9.50;;
42602;SDS011;28233;55.748;48.752;2023-02-11T04:06:06;19.83;;;9.00;;
42602;SDS011;28233;55.748;48.752;2023-02-11T04:08:08;19.03;;;8.17;;
42602;SDS011;28233;55.748;48.752;2023-02-11T04:10:11;19.45;;;9.63;;
42602;SDS011;28233;55.748;48.752;2023-02-11T04:12:14;21.10;;;9.73;;
42602;SDS011;28233;55.748;48.752;2023-02-11T04:14:16;17.43;;;8.50;;
42602;SDS011;28233;55.748;48.752;2023-02-11T04:16:19;20.43;;;9.73;;
42602;SDS011;28233;55.748;48.752;2023-02-11T04:18:22;19.20;;;10.17;;
42602;SDS011;28233;55.748;48.752;2023-02-11T04:20:25;22.10;;;10.20;;
42602;SDS011;28233;55.748;48.752;2023-02-11T04:22:28;23.27;;;9.50;;
42602;SDS011;28233;55.748;48.752;2023-02-11T04:24:31;25.10;;;10.93;;
42602;SDS011;28233;55.748;48.752;2023-02-11T04:26:34;20.27;;;9.90;;
42602;SDS011;28233;55.748;48.752;2023-02-11T04:28:36;23.23;;;9.55;;
42602;SDS011;28233;55.748;48.752;2023-02-11T04:30:39;19.77;;;8.90;;
42602;SDS011;28233;55.748;48.752;2023-02-11T04:32:42;22.27;;;9.63;;
42602;SDS011;28233;55.748;48.752;2023-02-11T04:34:44;18.30;;;9.45;;
42602;SDS011;28233;55.748;48.752;2023-02-11T04:36:47;16.20;;;8.52;;
42602;SDS011;28233;55.748;48.752;2023-02-11T04:38:50;17.85;;;8.35;;
42602;SDS011;28233;55.748;48.752;2023-02-11T04:40:52;18.02;;;9.43;;
42602;SDS011;28233;55.748;48.752;2023-02-11T04:42:55;18.93;;;8.77;;
42602;SDS011;28233;55.748;48.752;2023-02-11T04:44:58;23.13;;;9.43;;
42602;SDS011;28233;55.748;48.752;2023-02-11T04:47:01;20.30;;;9.48;;
42602;SDS011;28233;55.748;48.752;2023-02-11T04:49:04;19.10;;;9.60;;
42602;SDS011;28233;55.748;48.752;2023-02-11T04:51:06;18.00;;;8.88;;
42602;SDS011;28233;55.748;48.752;2023-02-11T04:53:09;17.73;;;8.27;;
42602;SDS011;28233;55.748;48.752;2023-02-11T04:55:12;24.88;;;9.40;;
42602;SDS011;28233;55.748;48.752;2023-02-11T04:57:14;21.52;;;9.13;;
42602;SDS011;28233;55.748;48.752;2023-02-11T04:59:17;19.77;;;9.38;;
42602;SDS011;28233;55.748;48.752;2023-02-11T05:01:20;20.02;;;8.65;;
42602;SDS011;28233;55.748;48.752;2023-02-11T05:03:23;21.90;;;9.95;;
42602;SDS011;28233;55.748;48.752;2023-02-11T05:05:25;23.80;;;10.48;;
42602;SDS011;28233;55.748;48.752;2023-02-11T05:07:28;21.45;;;10.00;;
42602;SDS011;28233;55.748;48.752;2023-02-11T05:09:31;20.10;;;9.20;;
42602;SDS011;28233;55.748;48.752;2023-02-11T05:11:33;18.38;;;9.98;;
42602;SDS011;28233;55.748;48.752;2023-02-11T05:13:37;18.20;;;9.57;;
42602;SDS011;28233;55.748;48.752;2023-02-11T05:15:40;15.98;;;8.02;;
42602;SDS011;28233;55.748;48.752;2023-02-11T05:17:42;20.65;;;9.07;;
42602;SDS011;28233;55.748;48.752;2023-02-11T05:19:45;23.20;;;10.43;;
42602;SDS011;28233;55.748;48.752;2023-02-11T05:21:48;19.17;;;9.25;;
42602;SDS011;28233;55.748;48.752;2023-02-11T05:24:03;17.48;;;9.13;;
42602;SDS011;28233;55.748;48.752;2023-02-11T05:26:07;18.38;;;9.73;;
42602;SDS011;28233;55.748;48.752;2023-02-11T05:28:10;19.55;;;8.98;;
42602;SDS011;28233;55.748;48.752;2023-02-11T05:30:13;21.58;;;10.90;;
42602;SDS011;28233;55.748;48.752;2023-02-11T05:32:16;20.42;;;10.73;;
42602;SDS011;28233;55.748;48.752;2023-02-11T05:34:18;22.20;;;10.45;;
42602;SDS011;28233;55.748;48.752;2023-02-11T05:36:21;19.48;;;9.85;;
42602;SDS011;28233;55.748;48.752;2023-02-11T05:38:24;23.38;;;10.65;;
42602;SDS011;28233;55.748;48.752;2023-02-11T05:40:26;25.70;;;11.30;;
42602;SDS011;28233;55.748;48.752;2023-02-11T05:42:29;19.17;;;10.13;;
42602;SDS011;28233;55.748;48.752;2023-02-11T05:44:32;21.13;;;10.32;;
42602;SDS011;28233;55.748;48.752;2023-02-11T05:46:34;23.73;;;10.13;;
42602;SDS011;28233;55.748;48.752;2023-02-11T05:48:37;25.40;;;11.93;;
42602;SDS011;28233;55.748;48.752;2023-02-11T05:50:40;22.17;;;10.05;;
42602;SDS011;28233;55.748;48.752;2023-02-11T05:52:43;21.90;;;11.80;;
42602;SDS011;28233;55.748;48.752;2023-02-11T05:54:45;19.67;;;10.15;;
42602;SDS011;28233;55.748;48.752;2023-02-11T05:56:48;19.92;;;10.02;;
42602;SDS011;28233;55.748;48.752;2023-02-11T05:58:51;18.00;;;9.88;;
42602;SDS011;28233;55.748;48.752;2023-02-11T06:00:53;22.40;;;10.38;;
42602;SDS011;28233;55.748;48.752;2023-02-11T06:02:57;22.77;;;11.60;;
42602;SDS011;28233;55.748;48.752;2023-02-11T06:04:59;26.02;;;11.85;;
42602;SDS011;28233;55.748;48.752;2023-02-11T06:07:04;22.10;;;10.98;;
42602;SDS011;28233;55.748;48.752;2023-02-11T06:09:07;26.27;;;12.13;;
42602;SDS011;28233;55.748;48.752;2023-02-11T06:11:13;23.95;;;11.40;;
42602;SDS011;28233;55.748;48.752;2023-02-11T06:13:17;26.02;;;11.63;;
42602;SDS011;28233;55.748;48.752;2023-02-11T06:15:20;23.70;;;12.88;;
42602;SDS011;28233;55.748;48.752;2023-02-11T06:17:23;23.58;;;10.82;;
42602;SDS011;28233;55.748;48.752;2023-02-11T06:19:26;26.63;;;11.80;;
42602;SDS011;28233;55.748;48.752;2023-02-11T06:21:29;26.20;;;11.02;;
42602;SDS011;28233;55.748;48.752;2023-02-11T06:23:44;23.45;;;11.80;;
42602;SDS011;28233;55.748;48.752;2023-02-11T06:25:47;26.83;;;11.70;;
42602;SDS011;28233;55.748;48.752;2023-02-11T06:27:50;24.48;;;12.80;;
42602;SDS011;28233;55.748;48.752;2023-02-11T06:29:53;29.30;;;12.68;;
42602;SDS011;28233;55.748;48.752;2023-02-11T06:31:56;21.45;;;11.98;;
42602;SDS011;28233;55.748;48.752;2023-02-11T06:33:59;23.88;;;11.77;;
42602;SDS011;28233;55.748;48.752;2023-02-11T06:36:02;26.55;;;12.82;;
42602;SDS011;28233;55.748;48.752;2023-02-11T06:38:06;30.75;;;11.98;;
42602;SDS011;28233;55.748;48.752;2023-02-11T06:40:09;28.83;;;13.57;;
42602;SDS011;28233;55.748;48.752;2023-02-11T06:42:14;26.38;;;13.10;;
42602;SDS011;28233;55.748;48.752;2023-02-11T06:44:16;27.13;;;12.48;;
42602;SDS011;28233;55.748;48.752;2023-02-11T06:46:19;28.48;;;12.95;;
42602;SDS011;28233;55.748;48.752;2023-02-11T06:48:22;28.30;;;12.70;;
42602;SDS011;28233;55.748;48.752;2023-02-11T06:50:25;28.65;;;13.32;;
42602;SDS011;28233;55.748;48.752;2023-02-11T06:52:27;30.58;;;14.15;;
42602;SDS011;28233;55.748;48.752;2023-02-11T06:54:30;29.80;;;13.18;;
42602;SDS011;28233;55.748;48.752;2023-02-11T06:56:33;34.20;;;13.50;;
42602;SDS011;28233;55.748;48.752;2023-02-11T06:58:36;28.13;;;13.57;;
42602;SDS011;28233;55.748;48.752;2023-02-11T07:00:39;24.95;;;13.70;;
42602;SDS011;28233;55.748;48.752;2023-02-11T07:02:42;26.73;;;13.65;;
42602;SDS011;28233;55.748;48.752;2023-02-11T07:04:45;29.70;;;13.80;;
42602;SDS011;28233;55.748;48.752;2023-02-11T07:06:47;25.52;;;12.30;;
42602;SDS011;28233;55.748;48.752;2023-02-11T07:08:50;31.58;;;13.18;;
42602;SDS011;28233;55.748;48.752;2023-02-11T07:10:53;24.40;;;12.18;;
42602;SDS011;28233;55.748;48.752;2023-02-11T07:12:55;24.63;;;12.43;;
42602;SDS011;28233;55.748;48.752;2023-02-11T07:14:59;30.35;;;13.85;;
42602;SDS011;28233;55.748;48.752;2023-02-11T07:17:05;28.92;;;14.43;;
42602;SDS011;28233;55.748;48.752;2023-02-11T07:19:08;26.77;;;12.55;;
42602;SDS011;28233;55.748;48.752;2023-02-11T07:21:11;29.58;;;12.75;;
42602;SDS011;28233;55.748;48.752;2023-02-11T07:23:15;22.83;;;12.00;;
42602;SDS011;28233;55.748;48.752;2023-02-11T07:25:18;28.35;;;13.18;;
42602;SDS011;28233;55.748;48.752;2023-02-11T07:27:20;26.08;;;12.60;;
42602;SDS011;28233;55.748;48.752;2023-02-11T07:29:23;25.17;;;13.23;;
42602;SDS011;28233;55.748;48.752;2023-02-11T07:31:26;24.75;;;12.52;;
42602;SDS011;28233;55.748;48.752;2023-02-11T07:33:30;25.52;;;12.77;;
42602;SDS011;28233;55.748;48.752;2023-02-11T07:35:33;24.77;;;13.18;;
42602;SDS011;28233;55.748;48.752;2023-02-11T07:37:36;29.15;;;13.20;;
42602;SDS011;28233;55.748;48.752;2023-02-11T07:39:39;26.20;;;13.00;;
42602;SDS011;28233;55.748;48.752;2023-02-11T07:41:41;23.92;;;12.95;;
42602;SDS011;28233;55.748;48.752;2023-02-11T07:43:45;25.60;;;13.88;;
42602;SDS011;28233;55.748;48.752;2023-02-11T07:45:48;25.55;;;12.85;;
42602;SDS011;28233;55.748;48.752;2023-02-11T07:47:51;25.52;;;13.18;;
42602;SDS011;28233;55.748;48.752;2023-02-11T07:49:54;24.38;;;12.80;;
42602;SDS011;28233;55.748;48.752;2023-02-11T07:51:57;24.70;;;12.23;;
42602;SDS011;28233;55.748;48.752;2023-02-11T07:54:00;22.98;;;11.85;;
42602;SDS011;28233;55.748;48.752;2023-02-11T07:56:03;30.98;;;13.40;;
42602;SDS011;28233;55.748;48.752;2023-02-11T07:58:07;22.60;;;11.50;;
42602;SDS011;28233;55.748;48.752;2023-02-11T08:00:10;27.90;;;13.40;;
42602;SDS011;28233;55.748;48.752;2023-02-11T08:02:13;20.98;;;11.57;;
42602;SDS011;28233;55.748;48.752;2023-02-11T08:04:16;18.85;;;9.95;;
42602;SDS011;28233;55.748;48.752;2023-02-11T08:06:21;23.00;;;11.05;;
42602;SDS011;28233;55.748;48.752;2023-02-11T08:08:28;24.98;;;11.98;;
42602;SDS011;28233;55.748;48.752;2023-02-11T08:10:31;28.65;;;12.05;;
42602;SDS011;28233;55.748;48.752;2023-02-11T08:12:35;26.13;;;12.30;;
42602;SDS011;28233;55.748;48.752;2023-02-11T08:14:38;21.85;;;11.30;;
42602;SDS011;28233;55.748;48.752;2023-02-11T08:16:41;22.23;;;12.55;;
42602;SDS011;28233;55.748;48.752;2023-02-11T08:18:45;25.98;;;13.40;;
42602;SDS011;28233;55.748;48.752;2023-02-11T08:20:48;25.58;;;13.13;;
42602;SDS011;28233;55.748;48.752;2023-02-11T08:22:51;22.60;;;11.15;;
42602;SDS011;28233;55.748;48.752;2023-02-11T08:24:54;25.95;;;12.18;;
42602;SDS011;28233;55.748;48.752;2023-02-11T08:27:00;25.63;;;10.82;;
42602;SDS011;28233;55.748;48.752;2023-02-11T08:29:05;20.70;;;11.63;;
42602;SDS011;28233;55.748;48.752;2023-02-11T08:31:17;20.17;;;11.60;;
42602;SDS011;28233;55.748;48.752;2023-02-11T08:33:23;26.45;;;12.45;;
42602;SDS011;28233;55.748;48.752;2023-02-11T08:35:26;22.10;;;11.25;;
42602;SDS011;28233;55.748;48.752;2023-02-11T08:37:29;21.77;;;11.27;;
42602;SDS011;28233;55.748;48.752;2023-02-11T08:39:34;24.38;;;11.10;;
42602;SDS011;28233;55.748;48.752;2023-02-11T08:41:36;21.45;;;11.18;;
42602;SDS011;28233;55.748;48.752;2023-02-11T08:43:40;24.27;;;12.27;;
42602;SDS011;28233;55.748;48.752;2023-02-11T08:45:45;26.05;;;11.55;;
42602;SDS011;28233;55.748;48.752;2023-02-11T08:47:47;24.38;;;11.55;;
42602;SDS011;28233;55.748;48.752;2023-02-11T08:49:50;27.58;;;12.20;;
42602;SDS011;28233;55.748;48.752;2023-02-11T08:51:53;20.00;;;10.75;;
42602;SDS011;28233;55.748;48.752;2023-02-11T08:53:57;19.20;;;10.73;;
42602;SDS011;28233;55.748;48.752;2023-02-11T08:56:01;22.75;;;12.07;;
42602;SDS011;28233;55.748;48.752;2023-02-11T08:58:04;20.08;;;10.48;;
42602;SDS011;28233;55.748;48.752;2023-02-11T09:00:07;22.00;;;11.35;;
42602;SDS011;28233;55.748;48.752;2023-02-11T09:02:12;21.70;;;12.32;;
42602;SDS011;28233;55.748;48.752;2023-02-11T09:04:15;21.42;;;10.60;;
42602;SDS011;28233;55.748;48.752;2023-02-11T09:06:18;22.75;;;11.50;;
42602;SDS011;28233;55.748;48.752;2023-02-11T09:08:21;22.63;;;11.30;;
42602;SDS011;28233;55.748;48.752;2023-02-11T09:10:24;23.50;;;12.43;;
42602;SDS011;28233;55.748;48.752;2023-02-11T09:12:27;26.02;;;12.40;;
42602;SDS011;28233;55.748;48.752;2023-02-11T09:14:29;22.17;;;12.48;;
42602;SDS011;28233;55.748;48.752;2023-02-11T09:16:33;25.25;;;11.52;;
42602;SDS011;28233;55.748;48.752;2023-02-11T09:18:37;24.15;;;10.80;;
42602;SDS011;28233;55.748;48.752;2023-02-11T09:20:40;23.60;;;11.35;;
42602;SDS011;28233;55.748;48.752;2023-02-11T09:22:43;26.42;;;12.90;;
42602;SDS011;28233;55.748;48.752;2023-02-11T09:24:47;25.85;;;12.63;;
42602;SDS011;28233;55.748;48.752;2023-02-11T09:26:50;23.67;;;11.68;;
42602;SDS011;28233;55.748;48.752;2023-02-11T09:28:52;24.65;;;10.82;;
42602;SDS011;28233;55.748;48.752;2023-02-11T09:30:55;21.50;;;11.25;;
42602;SDS011;28233;55.748;48.752;2023-02-11T09:32:58;25.90;;;11.80;;
42602;SDS011;28233;55.748;48.752;2023-02-11T09:35:01;22.60;;;12.75;;
42602;SDS011;28233;55.748;48.752;2023-02-11T09:37:04;25.85;;;13.10;;
42602;SDS011;28233;55.748;48.752;2023-02-11T09:39:11;24.58;;;12.95;;
42602;SDS011;28233;55.748;48.752;2023-02-11T09:43:42;22.15;;;11.88;;
42602;SDS011;28233;55.748;48.752;2023-02-11T09:45:47;25.38;;;11.27;;
42602;SDS011;28233;55.748;48.752;2023-02-11T09:52:14;21.42;;;11.18;;
42602;SDS011;28233;55.748;48.752;2023-02-11T09:54:35;25.13;;;12.38;;
42602;SDS011;28233;55.748;48.752;2023-02-11T09:56:49;23.02;;;11.98;;
42602;SDS011;28233;55.748;48.752;2023-02-11T09:58:53;22.42;;;11.55;;
42602;SDS011;28233;55.748;48.752;2023-02-11T10:10:38;20.55;;;11.10;;
42602;SDS011;28233;55.748;48.752;2023-02-11T10:12:56;23.90;;;11.73;;
42602;SDS011;28233;55.748;48.752;2023-02-11T10:22:07;24.25;;;11.43;;
42602;SDS011;28233;55.748;48.752;2023-02-11T10:24:16;22.50;;;10.93;;
42602;SDS011;28233;55.748;48.752;2023-02-11T10:26:19;23.25;;;10.40;;
42602;SDS011;28233;55.748;48.752;2023-02-11T10:28:26;18.95;;;11.00;;
42602;SDS011;28233;55.748;48.752;2023-02-11T10:30:33;20.33;;;10.23;;
42602;SDS011;28233;55.748;48.752;2023-02-11T10:35:14;24.73;;;10.40;;
42602;SDS011;28233;55.748;48.752;2023-02-11T10:37:19;23.85;;;10.75;;
42602;SDS011;28233;55.748;48.752;2023-02-11T10:39:24;23.23;;;10.93;;
42602;SDS011;28233;55.748;48.752;2023-02-11T10:41:30;20.10;;;10.10;;
42602;SDS011;28233;55.748;48.752;2023-02-11T10:43:37;25.55;;;12.40;;
42602;SDS011;28233;55.748;48.752;2023-02-11T10:45:46;22.55;;;11.88;;
42602;SDS011;28233;55.748;48.752;2023-02-11T10:47:50;19.88;;;9.60;;
42602;SDS011;28233;55.748;48.752;2023-02-11T10:49:53;20.92;;;9.82;;
42602;SDS011;28233;55.748;48.752;2023-02-11T10:52:14;20.65;;;9.75;;
42602;SDS011;28233;55.748;48.752;2023-02-11T10:54:28;22.27;;;10.53;;
42602;SDS011;28233;55.748;48.752;2023-02-11T10:56:34;23.05;;;11.35;;
42602;SDS011;28233;55.748;48.752;2023-02-11T10:58:40;22.30;;;11.43;;
42602;SDS011;28233;55.748;48.752;2023-02-11T11:00:50;23.35;;;10.27;;
42602;SDS011;28233;55.748;48.752;2023-02-11T11:02:56;20.63;;;10.43;;
42602;SDS011;28233;55.748;48.752;2023-02-11T11:05:03;21.10;;;11.07;;
42602;SDS011;28233;55.748;48.752;2023-02-11T11:07:19;23.70;;;10.90;;
42602;SDS011;28233;55.748;48.752;2023-02-11T11:09:28;24.27;;;11.10;;
42602;SDS011;28233;55.748;48.752;2023-02-11T11:11:31;23.38;;;10.90;;
42602;SDS011;28233;55.748;48.752;2023-02-11T11:13:35;21.05;;;10.35;;
42602;SDS011;28233;55.748;48.752;2023-02-11T11:18:15;24.95;;;10.52;;
42602;SDS011;28233;55.748;48.752;2023-02-11T11:20:27;21.23;;;10.05;;
42602;SDS011;28233;55.748;48.752;2023-02-11T11:22:34;24.10;;;11.65;;
42602;SDS011;28233;55.748;48.752;2023-02-11T11:24:44;20.10;;;9.70;;
42602;SDS011;28233;55.748;48.752;2023-02-11T11:26:51;23.17;;;9.88;;
42602;SDS011;28233;55.748;48.752;2023-02-11T11:28:57;20.42;;;10.57;;
42602;SDS011;28233;55.748;48.752;2023-02-11T11:31:03;22.75;;;10.23;;
42602;SDS011;28233;55.748;48.752;2023-02-11T11:33:18;27.30;;;11.02;;
42602;SDS011;28233;55.748;48.752;2023-02-11T11:35:25;22.15;;;10.32;;
42602;SDS011;28233;55.748;48.752;2023-02-11T11:37:30;20.40;;;9.57;;
42602;SDS011;28233;55.748;48.752;2023-02-11T11:39:35;24.60;;;10.65;;
42602;SDS011;28233;55.748;48.752;2023-02-11T11:41:38;24.35;;;10.27;;
42602;SDS011;28233;55.748;48.752;2023-02-11T11:46:32;16.83;;;9.00;;
42602;SDS011;28233;55.748;48.752;2023-02-11T11:48:37;18.08;;;10.27;;
42602;SDS011;28233;55.748;48.752;2023-02-11T11:50:46;18.00;;;9.85;;
42602;SDS011;28233;55.748;48.752;2023-02-11T11:53:04;22.77;;;10.10;;
42602;SDS011;28233;55.748;48.752;2023-02-11T11:55:16;19.70;;;9.52;;
42602;SDS011;28233;55.748;48.752;2023-02-11T11:57:23;19.80;;;9.90;;
42602;SDS011;28233;55.748;48.752;2023-02-11T11:59:29;20.85;;;10.63;;
42602;SDS011;28233;55.748;48.752;2023-02-11T12:01:36;22.25;;;9.63;;
42602;SDS011;28233;55.748;48.752;2023-02-11T12:14:27;25.73;;;9.77;;
42602;SDS011;28233;55.748;48.752;2023-02-11T12:19:29;17.90;;;8.30;;
42602;SDS011;28233;55.748;48.752;2023-02-11T12:29:21;20.27;;;9.43;;
42602;SDS011;28233;55.748;48.752;2023-02-11T12:38:48;20.67;;;9.30;;
42602;SDS011;28233;55.748;48.752;2023-02-11T12:41:15;19.10;;;8.50;;
42602;SDS011;28233;55.748;48.752;2023-02-11T12:43:46;18.92;;;9.05;;
42602;SDS011;28233;55.748;48.752;2023-02-11T12:55:47;12.55;;;6.50;;
42602;SDS011;28233;55.748;48.752;2023-02-11T12:57:57;15.05;;;7.55;;
42602;SDS011;28233;55.748;48.752;2023-02-11T13:00:03;15.13;;;6.93;;
42602;SDS011;28233;55.748;48.752;2023-02-11T13:02:27;23.13;;;7.88;;
42602;SDS011;28233;55.748;48.752;2023-02-11T13:04:36;15.40;;;7.80;;
42602;SDS011;28233;55.748;48.752;2023-02-11T13:06:48;14.93;;;7.22;;
42602;SDS011;28233;55.748;48.752;2023-02-11T13:09:12;17.35;;;7.88;;
42602;SDS011;28233;55.748;48.752;2023-02-11T13:11:27;17.48;;;7.68;;
42602;SDS011;28233;55.748;48.752;2023-02-11T13:16:04;16.08;;;7.95;;
42602;SDS011;28233;55.748;48.752;2023-02-11T13:18:16;15.18;;;7.93;;
42602;SDS011;28233;55.748;48.752;2023-02-11T13:25:39;14.13;;;7.60;;
42602;SDS011;28233;55.748;48.752;2023-02-11T13:35:15;17.75;;;7.22;;
42602;SDS011;28233;55.748;48.752;2023-02-11T13:37:36;16.75;;;8.48;;
42602;SDS011;28233;55.748;48.752;2023-02-11T13:39:40;16.10;;;6.85;;
42602;SDS011;28233;55.748;48.752;2023-02-11T13:41:42;17.35;;;6.72;;
42602;SDS011;28233;55.748;48.752;2023-02-11T13:46:08;13.05;;;7.22;;
42602;SDS011;28233;55.748;48.752;2023-02-11T13:48:16;16.42;;;6.15;;
42602;SDS011;28233;55.748;48.752;2023-02-11T13:50:22;16.20;;;7.25;;
42602;SDS011;28233;55.748;48.752;2023-02-11T13:52:35;17.60;;;6.93;;
42602;SDS011;28233;55.748;48.752;2023-02-11T13:54:40;17.60;;;8.18;;
42602;SDS011;28233;55.748;48.752;2023-02-11T14:04:23;13.77;;;6.85;;
42602;SDS011;28233;55.748;48.752;2023-02-11T14:07:20;21.63;;;10.13;;
42602;SDS011;28233;55.748;48.752;2023-02-11T14:09:48;15.60;;;8.57;;
42602;SDS011;28233;55.748;48.752;2023-02-11T14:14:35;14.25;;;7.93;;
42602;SDS011;28233;55.748;48.752;2023-02-11T14:19:08;23.65;;;9.10;;
42602;SDS011;28233;55.748;48.752;2023-02-11T14:21:12;21.70;;;11.40;;
42602;SDS011;28233;55.748;48.752;2023-02-11T14:23:22;31.30;;;10.55;;
42602;SDS011;28233;55.748;48.752;2023-02-11T14:25:28;23.30;;;10.82;;